Time;durP1;ratioP1;P1;durP2;ratioP2;P2;SDS_P1;SDS_P2;PMS_P1;PMS_P2;Temp;Humidity;BMP_temperature;BMP_pressure;BME280_temperature;BME280_humidity;BME280_pressure;Samples;Min_cycle;Max_cycle;Signal;HPM_P1;HPM_P2
2023/07/06 00:01:04;;;;;;;4.50;3.93;;;;;;;-145.94;66.57;76708.56;5116663;28;20220;-66
2023/07/06 00:03:31;;;;;;;4.63;4.53;;;;;;;-145.94;66.35;76708.56;5117131;28;20173;-66
2023/07/06 00:05:59;;;;;;;4.93;3.77;;;;;;;-145.94;66.55;76708.56;5116458;28;20181;-66
2023/07/06 00:08:27;;;;;;;3.57;3.37;;;;;;;-145.94;66.80;76716.72;5116652;28;20200;-66
2023/07/06 00:10:54;;;;;;;4.53;4.33;;;;;;;-145.94;66.73;76724.88;5116279;28;20212;-66
2023/07/06 00:13:22;;;;;;;4.27;3.97;;;;;;;-145.94;66.55;76728.97;5116294;28;20190;-66
2023/07/06 00:15:50;;;;;;;4.30;4.10;;;;;;;-145.94;66.22;76720.81;5116835;28;20268;-66
2023/07/06 00:18:20;;;;;;;3.90;3.80;;;;;;;-145.94;66.49;76724.88;5116821;28;20197;-66
2023/07/06 00:20:49;;;;;;;3.83;3.80;;;;;;;-145.94;66.24;76728.97;5116775;28;20213;-66
2023/07/06 00:23:16;;;;;;;3.60;3.50;;;;;;;-145.94;66.27;76737.13;5116449;28;20185;-66
2023/07/06 00:25:42;;;;;;;3.83;3.77;;;;;;;-145.94;66.10;76733.03;5115472;28;20185;-66
2023/07/06 00:28:10;;;;;;;4.50;4.10;;;;;;;-145.94;66.13;76741.19;5116010;28;20188;-66
2023/07/06 00:33:16;;;;;;;3.63;3.63;;;;;;;-145.94;66.20;76745.28;5116309;28;20168;-66
2023/07/06 00:35:44;;;;;;;4.17;4.17;;;;;;;-145.94;66.22;76745.28;5098286;28;20238;-66
2023/07/06 00:38:14;;;;;;;4.87;4.77;;;;;;;-145.94;66.18;76741.19;5115878;28;20189;-66
2023/07/06 00:40:43;;;;;;;5.17;4.93;;;;;;;-145.94;66.11;76743.25;5097795;28;20213;-66
2023/07/06 00:43:11;;;;;;;5.17;4.83;;;;;;;-145.94;66.02;76735.09;5115775;28;20181;-66
2023/07/06 00:45:38;;;;;;;4.50;4.50;;;;;;;-145.94;66.17;76737.13;5115971;28;20193;-66
2023/07/06 00:48:14;;;;;;;4.17;4.07;;;;;;;-145.94;65.94;76737.13;5097317;28;20228;-66
2023/07/06 00:50:41;;;;;;;4.03;3.73;;;;;;;-145.94;66.31;76741.19;5115803;28;20204;-66
2023/07/06 00:53:11;;;;;;;4.23;3.93;;;;;;;-145.94;66.16;76739.16;5115628;28;20185;-66
2023/07/06 00:55:42;;;;;;;4.17;4.07;;;;;;;-145.94;66.13;76735.09;5115580;28;20226;-66
2023/07/06 00:58:19;;;;;;;3.43;3.40;;;;;;;-145.94;66.11;76735.09;5115528;28;20206;-66
2023/07/06 01:00:47;;;;;;;4.50;4.40;;;;;;;-145.94;65.94;76739.16;5097167;28;20200;-66
2023/07/06 01:03:19;;;;;;;3.87;3.87;;;;;;;-145.94;65.92;76737.13;5115936;28;20185;-66
2023/07/06 01:05:55;;;;;;;3.00;3.00;;;;;;;-145.94;65.99;76743.25;5115358;28;20178;-66
2023/07/06 01:08:23;;;;;;;3.40;3.40;;;;;;;-145.94;66.20;76737.13;5115261;28;20256;-66
2023/07/06 01:10:53;;;;;;;4.03;3.93;;;;;;;-145.94;66.08;76737.13;5115163;28;20197;-66
2023/07/06 01:13:23;;;;;;;4.53;4.43;;;;;;;-145.94;66.11;76741.19;5115201;28;20193;-66
2023/07/06 01:15:58;;;;;;;3.73;3.63;;;;;;;-145.94;66.20;76745.28;5096933;28;20189;-66
2023/07/06 01:18:46;;;;;;;3.70;3.50;;;;;;;-145.94;65.98;76739.16;5115409;28;20165;-66
2023/07/06 01:21:32;;;;;;;3.47;3.37;;;;;;;-145.94;66.01;76743.25;5083404;28;20217;-66
2023/07/06 01:24:09;;;;;;;3.60;3.50;;;;;;;-145.94;66.07;76743.25;5115234;28;20623;-66
2023/07/06 01:27:14;;;;;;;4.30;4.13;;;;;;;-145.94;66.17;76747.31;5115211;28;20178;-66
2023/07/06 01:30:06;;;;;;;4.00;3.90;;;;;;;-145.94;65.93;76745.28;5012380;28;20224;-66
2023/07/06 01:32:44;;;;;;;3.53;3.53;;;;;;;-145.94;65.96;76749.34;5113288;28;20213;-66
2023/07/06 01:35:17;;;;;;;8.43;4.40;;;;;;;-145.94;66.03;76739.16;5115052;28;20181;-66
2023/07/06 01:37:45;;;;;;;4.20;4.10;;;;;;;-145.94;66.25;76745.28;5113714;28;20691;-66
2023/07/06 01:40:12;;;;;;;4.10;4.00;;;;;;;-145.94;66.05;76749.34;5114879;28;20188;-66
2023/07/06 01:42:40;;;;;;;3.93;3.83;;;;;;;-145.94;66.10;76751.41;5114578;28;20273;-66
2023/07/06 01:45:10;;;;;;;4.43;4.00;;;;;;;-145.94;66.07;76749.34;5114540;28;20655;-66
2023/07/06 01:47:42;;;;;;;3.77;3.67;;;;;;;-145.94;66.05;76751.41;5115328;28;20185;-66
2023/07/06 01:50:12;;;;;;;4.00;3.90;;;;;;;-145.94;66.17;76753.44;5114996;28;20190;-66
2023/07/06 01:53:01;;;;;;;4.83;4.47;;;;;;;-145.94;66.20;76759.56;5114726;28;20202;-66
2023/07/06 01:55:37;;;;;;;3.20;3.10;;;;;;;-145.94;66.07;76757.50;5096617;28;20185;-66
2023/07/06 01:58:16;;;;;;;4.00;3.87;;;;;;;-145.94;66.07;76759.56;5096119;28;20185;-66
2023/07/06 02:00:48;;;;;;;3.70;3.70;;;;;;;-145.94;66.21;76767.72;5095997;28;20205;-66
2023/07/06 02:03:15;;;;;;;3.73;3.63;;;;;;;-145.94;66.05;76765.66;5096043;28;20192;-66
2023/07/06 02:05:43;;;;;;;3.40;3.40;;;;;;;-145.94;66.18;76771.78;5096241;28;20268;-66
2023/07/06 02:08:11;;;;;;;4.47;4.27;;;;;;;-145.94;66.08;76777.91;5114117;28;20181;-66
2023/07/06 02:10:37;;;;;;;4.00;3.80;;;;;;;-145.94;66.28;76788.09;5114202;28;20208;-66
2023/07/06 02:13:04;;;;;;;6.63;4.07;;;;;;;-145.94;66.62;76784.03;5095800;28;20201;-66
2023/07/06 02:15:31;;;;;;;3.73;3.73;;;;;;;-145.94;66.32;76786.06;5114299;28;20276;-66
2023/07/06 02:17:58;;;;;;;3.37;3.27;;;;;;;-145.94;66.39;76779.94;5114063;28;20199;-66
2023/07/06 02:20:24;;;;;;;3.93;3.70;;;;;;;-145.94;66.44;76790.16;5114197;28;20586;-66
2023/07/06 02:22:51;;;;;;;3.83;3.73;;;;;;;-145.94;66.49;76792.19;5114505;28;20184;-66
2023/07/06 02:25:20;;;;;;;4.00;3.87;;;;;;;-145.94;66.50;76794.22;5114542;28;20183;-67
2023/07/06 02:27:47;;;;;;;4.47;4.17;;;;;;;-145.94;66.20;76800.34;5113853;28;20189;-67
2023/07/06 02:30:14;;;;;;;4.10;4.03;;;;;;;-145.94;66.57;76798.31;5095233;28;20679;-66
2023/07/06 02:32:40;;;;;;;5.00;4.40;;;;;;;-145.94;66.68;76804.41;5096632;28;20185;-66
2023/07/06 02:35:10;;;;;;;4.87;4.50;;;;;;;-145.94;66.47;76804.41;5113770;28;20188;-66
2023/07/06 02:37:38;;;;;;;3.90;3.90;;;;;;;-145.94;66.64;76812.56;5113799;28;20188;-66
2023/07/06 02:40:09;;;;;;;4.13;4.03;;;;;;;-145.94;66.67;76810.53;5114330;28;20185;-66
2023/07/06 02:42:36;;;;;;;3.93;3.83;;;;;;;-145.94;66.71;76822.78;5078746;28;20235;-66
2023/07/06 02:45:05;;;;;;;4.27;4.17;;;;;;;-145.94;66.81;76822.78;5113984;28;20181;-66
2023/07/06 02:47:31;;;;;;;4.83;4.53;;;;;;;-145.94;67.01;76837.03;5095426;28;20195;-66
2023/07/06 02:49:58;;;;;;;4.37;4.17;;;;;;;-145.94;66.83;76839.09;5099515;28;20201;-66
2023/07/06 02:52:25;;;;;;;4.57;4.37;;;;;;;-145.94;67.34;76857.44;5099660;28;20209;-66
2023/07/06 02:54:53;;;;;;;4.93;4.73;;;;;;;-145.94;66.94;76859.47;5117890;28;20181;-66
2023/07/06 02:57:20;;;;;;;5.00;4.70;;;;;;;-145.94;67.02;76859.47;5099831;28;20188;-66
2023/07/06 02:59:47;;;;;;;4.83;4.40;;;;;;;-145.94;67.34;76859.47;5117754;28;20236;-66
2023/07/06 03:02:13;;;;;;;7.80;4.77;;;;;;;-145.94;67.61;76859.47;5117919;28;20664;-66
2023/07/06 03:04:40;;;;;;;4.23;4.03;;;;;;;-145.94;67.87;76867.63;5117716;28;20192;-66
2023/07/06 03:07:07;;;;;;;7.23;4.50;;;;;;;-145.94;67.66;76863.56;5099399;28;20238;-66
2023/07/06 03:09:34;;;;;;;4.90;4.70;;;;;;;-145.94;67.88;76865.59;5117519;28;20201;-66
2023/07/06 03:12:05;;;;;;;4.70;4.50;;;;;;;-145.94;67.97;76863.56;5099169;28;20209;-66
2023/07/06 03:14:32;;;;;;;4.30;4.20;;;;;;;-145.94;67.64;76875.78;5117631;28;20185;-66
2023/07/06 03:17:00;;;;;;;5.20;5.00;;;;;;;-145.94;67.54;76867.63;5117469;28;20186;-66
2023/07/06 03:19:26;;;;;;;5.10;4.90;;;;;;;-145.94;67.92;76867.63;5117676;28;20730;-66
2023/07/06 03:21:58;;;;;;;12.37;4.87;;;;;;;-145.94;67.65;76867.63;5117278;28;20213;-66
2023/07/06 03:24:25;;;;;;;5.10;4.60;;;;;;;-145.94;67.91;76871.72;5117628;28;20214;-66
2023/07/06 03:26:52;;;;;;;5.70;5.17;;;;;;;-145.94;67.84;76877.81;5099367;28;20582;-66
2023/07/06 03:29:20;;;;;;;5.07;4.83;;;;;;;-145.94;67.85;76879.88;5117289;28;20759;-66
2023/07/06 03:31:46;;;;;;;4.30;4.20;;;;;;;-145.94;67.69;76877.81;5117242;28;20213;-66
2023/07/06 03:34:13;;;;;;;6.40;4.27;;;;;;;-145.94;67.82;76871.72;5098873;28;20197;-66
2023/07/06 03:36:39;;;;;;;4.60;4.40;;;;;;;-145.94;67.54;76873.75;5117397;28;20751;-66
2023/07/06 03:39:06;;;;;;;5.83;5.00;;;;;;;-145.94;67.46;76871.72;5117355;28;20647;-66
2023/07/06 03:41:32;;;;;;;8.90;4.40;;;;;;;-145.94;67.60;76869.66;5116920;28;20201;-66
2023/07/06 03:43:59;;;;;;;5.53;5.23;;;;;;;-145.94;67.23;76865.59;5098978;28;20193;-66
2023/07/06 03:46:31;;;;;;;7.27;5.00;;;;;;;-145.94;67.01;76863.56;5116929;28;20181;-66
2023/07/06 03:48:58;;;;;;;5.07;4.70;;;;;;;-145.94;67.02;76845.19;5117665;28;20169;-66
2023/07/06 03:51:24;;;;;;;4.30;4.20;;;;;;;-145.94;66.49;76849.28;5116992;28;20205;-66
2023/07/06 03:53:51;;;;;;;4.60;4.20;;;;;;;-145.94;66.48;76847.25;5117272;28;20181;-66
2023/07/06 03:56:18;;;;;;;5.67;5.13;;;;;;;-145.94;66.12;76847.25;5116684;28;20185;-66
2023/07/06 03:58:44;;;;;;;4.80;4.53;;;;;;;-145.94;65.68;76847.25;5117241;28;20217;-66
2023/07/06 04:01:11;;;;;;;5.00;4.77;;;;;;;-145.94;65.59;76841.13;5116242;28;20678;-66
2023/07/06 04:03:37;;;;;;;5.00;4.70;;;;;;;-145.94;66.13;76837.03;5116580;28;20674;-66
2023/07/06 04:06:04;;;;;;;4.33;4.00;;;;;;;-145.94;65.46;76837.03;5117028;28;20185;-66
2023/07/06 04:08:31;;;;;;;10.27;4.90;;;;;;;-145.94;65.12;76830.94;5116524;28;20193;-66
2023/07/06 04:10:58;;;;;;;5.87;5.00;;;;;;;-145.94;64.57;76828.88;5116707;28;20262;-66
2023/07/06 04:13:24;;;;;;;5.20;4.60;;;;;;;-145.94;64.41;76826.84;5116958;28;20193;-66
2023/07/06 04:15:52;;;;;;;4.20;3.80;;;;;;;-145.94;64.03;76826.84;5116354;28;20659;-66
2023/07/06 04:18:19;;;;;;;4.90;4.70;;;;;;;-145.94;64.28;76826.84;5116305;28;20246;-66
2023/07/06 04:20:46;;;;;;;4.80;4.23;;;;;;;-145.94;64.49;76828.88;5116487;28;20562;-66
2023/07/06 04:23:13;;;;;;;3.73;3.37;;;;;;;-145.94;64.43;76822.78;5116533;28;20185;-66
2023/07/06 04:25:39;;;;;;;7.20;4.50;;;;;;;-145.94;64.27;76830.94;5116183;28;20276;-66
2023/07/06 04:28:10;;;;;;;6.77;4.17;;;;;;;-145.94;64.31;76832.97;5116422;28;20587;-66
2023/07/06 04:30:40;;;;;;;6.73;4.80;;;;;;;-145.94;64.32;76822.78;5116051;28;20219;-66
2023/07/06 04:33:10;;;;;;;5.67;4.37;;;;;;;-145.94;63.91;76818.69;5115983;28;20238;-66
2023/07/06 04:35:36;;;;;;;5.03;4.63;;;;;;;-145.94;63.73;76824.81;5116506;28;20169;-66
2023/07/06 04:38:06;;;;;;;8.00;4.63;;;;;;;-145.94;64.09;76820.72;5115911;28;20200;-66
2023/07/06 04:40:32;;;;;;;4.40;4.30;;;;;;;-145.94;63.59;76816.66;5115817;28;20246;-66
2023/07/06 04:43:00;;;;;;;11.37;4.97;;;;;;;-145.94;63.29;76806.47;5116109;28;20178;-66
2023/07/06 04:45:27;;;;;;;6.57;4.90;;;;;;;-145.94;63.22;76814.63;5115766;28;20214;-66
2023/07/06 04:47:55;;;;;;;4.20;3.90;;;;;;;-145.94;63.40;76810.53;5115715;28;20234;-66
2023/07/06 04:50:22;;;;;;;4.50;4.20;;;;;;;-145.94;63.43;76818.69;5115524;28;20212;-66
2023/07/06 04:52:55;;;;;;;5.93;4.97;;;;;;;-145.94;63.31;76812.56;5115615;28;20185;-66
2023/07/06 04:55:23;;;;;;;4.47;4.03;;;;;;;-145.94;63.03;76824.81;5116167;28;20211;-66
2023/07/06 04:57:54;;;;;;;5.00;4.57;;;;;;;-145.94;63.24;76820.72;5115758;28;20246;-66
2023/07/06 05:00:28;;;;;;;4.47;4.37;;;;;;;-145.94;63.31;76824.81;5115848;28;20166;-66
2023/07/06 05:02:58;;;;;;;6.17;4.17;;;;;;;-145.94;63.38;76818.69;5115314;28;20264;-66
2023/07/06 05:05:32;;;;;;;12.17;5.63;;;;;;;-145.94;63.11;76818.69;5115398;28;20184;-66
2023/07/06 05:07:58;;;;;;;6.37;4.87;;;;;;;-145.94;63.31;76814.63;5115285;28;20257;-66
2023/07/06 05:10:26;;;;;;;4.60;4.40;;;;;;;-145.94;63.19;76810.53;5115080;28;20209;-66
2023/07/06 05:12:55;;;;;;;12.60;4.33;;;;;;;-145.94;63.01;76806.47;5115842;28;20230;-66
2023/07/06 05:15:23;;;;;;;4.57;4.37;;;;;;;-145.94;63.13;76802.38;5115431;28;20243;-66
2023/07/06 05:17:49;;;;;;;5.73;5.07;;;;;;;-145.94;63.04;76794.22;5115312;28;20193;-66
2023/07/06 05:20:16;;;;;;;4.23;4.10;;;;;;;-145.94;62.69;76786.06;5115023;28;20181;-66
2023/07/06 05:22:48;;;;;;;5.20;4.50;;;;;;;-145.94;62.60;76784.03;5115582;28;20234;-66
2023/07/06 05:25:17;;;;;;;4.97;4.57;;;;;;;-145.94;62.71;76777.91;5115526;28;20227;-66
2023/07/06 05:27:44;;;;;;;5.57;4.83;;;;;;;-145.94;62.45;76771.78;5114854;28;20219;-66
2023/07/06 05:30:10;;;;;;;11.83;4.60;;;;;;;-145.94;62.45;76757.50;5114892;28;20213;-66
2023/07/06 05:32:37;;;;;;;5.23;4.53;;;;;;;-145.94;62.21;76757.50;5114803;28;20186;-66
2023/07/06 05:35:04;;;;;;;9.60;4.77;;;;;;;-145.94;61.62;76753.44;5114738;28;20200;-66
2023/07/06 05:37:30;;;;;;;4.23;3.80;;;;;;;-145.94;61.73;76753.44;5115297;28;20724;-66
2023/07/06 05:40:06;;;;;;;4.97;4.40;;;;;;;-145.94;61.82;76747.31;5114675;28;20252;-66
2023/07/06 05:42:32;;;;;;;9.90;4.90;;;;;;;-145.94;61.91;76737.13;5114583;28;20216;-66
2023/07/06 05:44:59;;;;;;;5.00;4.67;;;;;;;-145.94;61.59;76731.00;5114574;28;20215;-66
2023/07/06 05:47:26;;;;;;;7.43;4.07;;;;;;;-145.94;61.11;76737.13;5114707;28;20646;-66
2023/07/06 05:49:53;;;;;;;8.93;5.03;;;;;;;-145.94;60.98;76737.13;5114379;28;20207;-65
2023/07/06 05:52:20;;;;;;;4.67;4.27;;;;;;;-145.94;61.17;76745.28;5114448;28;20254;-66
2023/07/06 05:54:46;;;;;;;5.23;4.10;;;;;;;-145.94;61.29;76743.25;5114391;28;20234;-66
2023/07/06 05:57:16;;;;;;;19.50;4.40;;;;;;;-145.94;61.35;76753.44;5114473;28;20189;-66
2023/07/06 05:59:45;;;;;;;12.27;4.80;;;;;;;-145.94;61.11;76753.44;5114307;28;20189;-66
2023/07/06 06:02:17;;;;;;;6.33;5.03;;;;;;;-145.94;61.51;76759.56;5114775;28;20217;-66
2023/07/06 06:04:44;;;;;;;10.27;5.63;;;;;;;-145.94;61.39;76759.56;5114975;28;20607;-66
2023/07/06 06:07:11;;;;;;;6.20;3.90;;;;;;;-145.94;61.27;76759.56;5114682;28;20596;-66
2023/07/06 06:09:37;;;;;;;5.33;4.80;;;;;;;-145.94;61.72;76765.66;5114314;28;20189;-66
2023/07/06 06:12:04;;;;;;;5.47;4.67;;;;;;;-145.94;61.63;76757.50;5114078;28;20759;-66
2023/07/06 06:14:32;;;;;;;5.40;4.90;;;;;;;-145.94;61.14;76757.50;5114259;28;20573;-66
2023/07/06 06:16:59;;;;;;;11.33;5.27;;;;;;;-145.94;61.27;76749.34;5114283;28;20187;-66
2023/07/06 06:19:27;;;;;;;9.73;4.90;;;;;;;-145.94;61.21;76757.50;5114005;28;20185;-66
2023/07/06 06:21:54;;;;;;;6.17;4.90;;;;;;;-145.94;61.42;76755.47;5113836;28;20205;-66
2023/07/06 06:24:22;;;;;;;5.50;4.97;;;;;;;-145.94;60.99;76757.50;5113342;28;20193;-66
2023/07/06 06:26:49;;;;;;;7.47;4.93;;;;;;;-145.94;60.98;76755.47;5113883;28;20193;-66
2023/07/06 06:29:17;;;;;;;13.80;5.10;;;;;;;-145.94;61.22;76751.41;5114009;28;20254;-66
2023/07/06 06:31:43;;;;;;;12.57;5.87;;;;;;;-145.94;60.78;76747.31;5113734;28;20635;-66
2023/07/06 06:34:11;;;;;;;12.63;5.47;;;;;;;-145.94;61.40;76741.19;5114347;28;20196;-66
2023/07/06 06:36:37;;;;;;;10.17;4.70;;;;;;;-145.94;61.20;76728.97;5113730;28;20224;-66
2023/07/06 06:39:04;;;;;;;14.47;5.40;;;;;;;-145.94;62.01;76728.97;5114242;28;20193;-66
2023/07/06 06:41:30;;;;;;;6.67;5.20;;;;;;;-145.94;61.07;76720.81;5113885;28;20311;-66
2023/07/06 06:43:57;;;;;;;10.37;5.77;;;;;;;-145.94;61.13;76710.63;5113723;28;20730;-66
2023/07/06 06:46:23;;;;;;;6.33;4.27;;;;;;;-145.94;61.75;76696.34;5113674;28;20592;-66
2023/07/06 06:48:50;;;;;;;10.40;4.63;;;;;;;-145.94;61.31;76680.03;5114132;28;20212;-66
2023/07/06 06:51:16;;;;;;;5.00;4.67;;;;;;;-145.94;61.05;76659.63;5113500;28;20277;-66
2023/07/06 06:53:44;;;;;;;7.40;3.73;;;;;;;-145.94;61.08;76651.47;5114117;28;20235;-66
2023/07/06 06:56:10;;;;;;;8.47;4.10;;;;;;;-145.94;61.02;76633.13;5114073;28;20184;-66
2023/07/06 06:58:37;;;;;;;11.20;3.80;;;;;;;-145.94;59.89;76616.81;5113537;28;20560;-66
2023/07/06 07:01:06;;;;;;;7.80;3.67;;;;;;;-145.94;59.44;76610.69;5113648;28;20209;-66
2023/07/06 07:03:34;;;;;;;7.37;4.30;;;;;;;-145.94;59.21;76596.44;5113727;28;20676;-66
2023/07/06 07:06:12;;;;;;;6.37;3.93;;;;;;;-145.94;59.22;76594.38;5113470;28;20249;-66
2023/07/06 07:08:39;;;;;;;6.13;4.40;;;;;;;-145.94;59.00;76582.16;5113756;28;20181;-66
2023/07/06 07:11:06;;;;;;;7.07;4.10;;;;;;;-145.94;59.32;76582.16;5113776;28;20217;-66
2023/07/06 07:13:40;;;;;;;6.00;4.23;;;;;;;-145.94;59.28;76574.00;5113677;28;20201;-66
2023/07/06 07:16:11;;;;;;;6.30;4.70;;;;;;;-145.94;59.00;76565.84;5113291;28;20272;-66
2023/07/06 07:18:39;;;;;;;4.60;4.40;;;;;;;-145.94;59.64;76582.16;5113659;28;20623;-66
2023/07/06 07:21:07;;;;;;;10.30;5.00;;;;;;;-145.94;59.34;76586.22;5113450;28;20209;-66
2023/07/06 07:23:41;;;;;;;6.17;4.17;;;;;;;-145.94;58.50;76574.00;5113846;28;20189;-66
2023/07/06 07:26:13;;;;;;;6.70;5.47;;;;;;;-145.94;59.00;76571.97;5113623;28;20178;-66
2023/07/06 07:28:40;;;;;;;18.93;4.70;;;;;;;-145.94;59.05;76557.69;5113886;28;20230;-66
2023/07/06 07:31:07;;;;;;;4.83;3.97;;;;;;;-145.94;59.04;76545.44;5113063;28;20242;-66
2023/07/06 07:33:34;;;;;;;9.87;5.87;;;;;;;-145.94;58.82;76549.53;5113246;28;20539;-66
2023/07/06 07:36:03;;;;;;;10.20;4.37;;;;;;;-145.94;58.53;76549.53;5117308;28;20193;-66
2023/07/06 07:38:30;;;;;;;8.87;4.97;;;;;;;-145.94;58.25;76541.38;5117083;28;20189;-66
2023/07/06 07:40:59;;;;;;;5.40;4.90;;;;;;;-145.94;57.90;76537.28;5117343;28;20258;-66
2023/07/06 07:43:28;;;;;;;8.77;4.67;;;;;;;-145.94;58.12;76539.34;5117223;28;20242;-66
2023/07/06 07:45:58;;;;;;;7.10;5.40;;;;;;;-145.94;58.23;76527.09;5116945;28;20238;-66
2023/07/06 07:48:25;;;;;;;18.67;4.53;;;;;;;-145.94;58.04;76508.75;5117095;28;20551;-66
2023/07/06 07:50:56;;;;;;;6.70;4.43;;;;;;;-145.94;56.99;76502.63;5116655;28;20220;-66
2023/07/06 07:53:25;;;;;;;6.70;4.70;;;;;;;-145.94;56.87;76498.56;5117051;28;20181;-66
2023/07/06 07:55:56;;;;;;;7.53;4.40;;;;;;;-145.94;57.04;76494.47;5116748;28;20239;-66
2023/07/06 07:58:23;;;;;;;5.73;4.67;;;;;;;-145.94;57.16;76488.34;5117043;28;20170;-66
2023/07/06 08:00:51;;;;;;;6.87;4.63;;;;;;;-145.94;56.64;76474.09;5116625;28;20634;-66
2023/07/06 08:03:18;;;;;;;5.87;4.23;;;;;;;-145.94;56.84;76459.81;5116890;28;20611;-66
2023/07/06 08:05:44;;;;;;;21.20;4.83;;;;;;;-145.94;56.51;76465.94;5116802;28;20185;-66
2023/07/06 08:08:11;;;;;;;10.80;5.17;;;;;;;-145.94;56.33;76470.00;5116556;28;20190;-66
2023/07/06 08:10:40;;;;;;;10.70;5.33;;;;;;;-145.94;56.61;76457.78;5116510;28;20287;-66
2023/07/06 08:13:09;;;;;;;11.63;4.63;;;;;;;-145.94;56.97;76455.72;5116749;28;20185;-66
2023/07/06 08:15:39;;;;;;;5.77;4.00;;;;;;;-145.94;55.80;76461.84;5116382;28;20246;-66
2023/07/06 08:18:06;;;;;;;11.83;3.80;;;;;;;-145.94;54.84;76470.00;5116323;28;20177;-66
2023/07/06 08:20:33;;;;;;;16.57;5.27;;;;;;;-145.94;55.21;76480.19;5116495;28;20201;-66
2023/07/06 08:23:25;;;;;;;7.07;4.03;;;;;;;-145.94;55.43;76484.28;5116275;28;20182;-66
2023/07/06 08:25:52;;;;;;;11.17;5.07;;;;;;;-145.94;56.40;76480.19;5116552;28;20234;-66
2023/07/06 08:28:24;;;;;;;4.67;4.30;;;;;;;-145.94;55.04;76465.94;5105405;28;20991;-66
2023/07/06 08:30:51;;;;;;;11.73;3.73;;;;;;;-145.94;54.93;76455.72;5107733;28;20217;-67
2023/07/06 08:33:21;;;;;;;6.43;3.10;;;;;;;-145.94;54.35;76474.09;5116651;28;20640;-66
2023/07/06 08:35:49;;;;;;;11.57;3.23;;;;;;;-145.94;55.12;76478.16;5114147;28;20177;-67
2023/07/06 08:38:17;;;;;;;5.33;4.10;;;;;;;-145.94;54.72;76474.09;5109965;28;20693;-66
2023/07/06 08:40:52;;;;;;;3.93;3.57;;;;;;;-145.94;56.44;76439.41;5112748;28;20205;-66
2023/07/06 08:43:22;;;;;;;7.30;3.87;;;;;;;-145.94;54.95;76443.50;5113271;28;20188;-66
2023/07/06 08:45:55;;;;;;;7.97;4.03;;;;;;;-145.94;54.28;76447.56;5109662;28;20194;-69
2023/07/06 08:48:27;;;;;;;6.83;3.83;;;;;;;-145.94;54.76;76431.28;5107808;28;20254;-68
2023/07/06 08:51:03;;;;;;;7.67;3.23;;;;;;;-145.94;55.71;76417.00;5112117;28;20262;-66
2023/07/06 08:53:33;;;;;;;3.87;3.57;;;;;;;-145.94;54.82;76396.59;5113111;28;20676;-67
2023/07/06 08:56:03;;;;;;;5.40;4.50;;;;;;;-145.94;53.75;76384.38;5108431;28;20181;-66
2023/07/06 08:58:32;;;;;;;8.63;3.80;;;;;;;-145.94;52.26;76396.59;5114726;28;20192;-66
2023/07/06 09:01:05;;;;;;;3.83;3.07;;;;;;;-145.94;52.72;76390.50;5112431;28;20703;-67
2023/07/06 09:03:39;;;;;;;4.63;4.20;;;;;;;-145.94;53.12;76394.56;5108816;28;20213;-66
2023/07/06 09:06:11;;;;;;;4.10;3.73;;;;;;;-145.94;54.10;76357.88;5110984;28;20268;-66
2023/07/06 09:08:41;;;;;;;5.27;3.20;;;;;;;-145.94;51.75;76343.59;5112814;28;20226;-67
2023/07/06 09:11:08;;;;;;;8.50;3.13;;;;;;;-145.94;52.04;76339.50;5109899;28;20251;-66
2023/07/06 09:13:54;;;;;;;7.20;3.60;;;;;;;-145.94;51.24;76321.16;5111322;28;20196;-69
2023/07/06 09:16:22;;;;;;;3.27;3.17;;;;;;;-145.94;50.84;76302.81;5110357;28;20731;-66
2023/07/06 09:18:52;;;;;;;4.47;3.13;;;;;;;-145.94;50.73;76315.03;5110962;28;20547;-67
2023/07/06 09:21:25;;;;;;;3.10;2.90;;;;;;;-145.94;50.70;76278.34;5108558;28;20208;-67
2023/07/06 09:23:53;;;;;;;6.70;3.30;;;;;;;-145.94;49.85;76253.88;5112477;28;20224;-67
2023/07/06 09:26:28;;;;;;;3.73;2.73;;;;;;;-145.94;49.76;76241.66;5114204;28;20234;-66
2023/07/06 09:29:32;;;;;;;3.83;3.30;;;;;;;-145.94;48.93;76233.50;5113036;28;20224;-67
2023/07/06 09:32:20;;;;;;;4.13;3.03;;;;;;;-145.94;48.05;76247.75;5112971;28;20213;-67
2023/07/06 09:34:54;;;;;;;7.70;3.17;;;;;;;-145.94;48.95;76243.69;5111491;28;20555;-67
2023/07/06 09:37:21;;;;;;;3.50;2.83;;;;;;;-145.94;48.05;76255.91;5115097;28;20201;-66
2023/07/06 09:40:04;;;;;;;3.23;2.93;;;;;;;-145.94;48.67;76272.22;5115272;28;20185;-67
2023/07/06 09:42:32;;;;;;;2.70;2.60;;;;;;;-145.94;46.43;76286.50;5113971;28;20192;-66
2023/07/06 09:45:00;;;;;;;2.67;2.30;;;;;;;-145.94;47.09;76280.38;5114354;28;20193;-66
2023/07/06 09:47:29;;;;;;;4.50;2.87;;;;;;;-145.94;47.28;76251.84;5114462;28;20199;-67
2023/07/06 09:50:18;;;;;;;4.20;3.03;;;;;;;-145.94;47.68;76213.09;5110259;28;20192;-67
2023/07/06 09:52:45;;;;;;;3.33;3.13;;;;;;;-145.94;46.90;76213.09;5112146;28;20250;-66
2023/07/06 09:55:24;;;;;;;18.37;3.00;;;;;;;-145.94;46.42;76211.06;5112358;28;20201;-67
2023/07/06 09:57:51;;;;;;;5.50;2.20;;;;;;;-145.94;46.50;76235.53;5112520;28;20185;-67
2023/07/06 10:00:22;;;;;;;3.13;2.40;;;;;;;-145.94;47.05;76255.91;5113843;28;20185;-67
2023/07/06 10:03:14;;;;;;;2.83;2.63;;;;;;;-145.94;46.87;76235.53;5114660;28;20169;-66
2023/07/06 10:05:52;;;;;;;3.57;2.10;;;;;;;-145.94;45.38;76239.59;5110820;28;20313;-69
2023/07/06 10:08:29;;;;;;;7.20;2.03;;;;;;;-145.94;45.46;76231.44;5108412;28;20188;-68
2023/07/06 10:11:14;;;;;;;4.50;2.27;;;;;;;-145.94;45.31;76229.41;5107307;28;20213;-66
2023/07/06 10:14:05;;;;;;;3.60;2.17;;;;;;;-145.94;45.19;76231.44;5110857;28;20968;-67
2023/07/06 10:16:42;;;;;;;2.27;2.17;;;;;;;-145.94;46.10;76213.09;5101200;28;20224;-67
2023/07/06 10:19:31;;;;;;;6.80;2.30;;;;;;;-145.94;45.04;76202.91;5113312;28;20551;-67
2023/07/06 10:22:41;;;;;;;1.90;1.90;;;;;;;-145.94;44.92;76184.56;5112410;28;20193;-67
2023/07/06 10:25:27;;;;;;;8.70;2.10;;;;;;;-145.94;44.96;76164.16;5111428;28;20189;-69
2023/07/06 10:27:58;;;;;;;3.07;2.00;;;;;;;-145.94;44.31;76151.94;5114373;28;20222;-66
2023/07/06 10:30:31;;;;;;;6.87;2.40;;;;;;;-145.94;45.08;76137.66;5113630;28;20573;-67
2023/07/06 10:33:06;;;;;;;2.57;2.47;;;;;;;-145.94;43.80;76139.69;5114363;28;20709;-66
2023/07/06 10:35:37;;;;;;;2.13;1.90;;;;;;;-145.94;43.49;76147.84;5113071;28;20200;-66
2023/07/06 10:38:07;;;;;;;5.50;2.43;;;;;;;-145.94;43.36;76151.94;5109748;28;20708;-67
2023/07/06 10:40:35;;;;;;;2.30;1.93;;;;;;;-145.94;43.69;76147.84;5111647;28;20270;-66
2023/07/06 10:43:14;;;;;;;1.87;1.77;;;;;;;-145.94;43.11;76147.84;5111851;28;20193;-68
2023/07/06 10:45:43;;;;;;;8.20;2.03;;;;;;;-145.94;42.77;76164.16;5106124;28;20230;-66
2023/07/06 10:48:26;;;;;;;1.80;1.70;;;;;;;-145.94;41.92;76186.59;5104253;28;20647;-67
2023/07/06 10:51:12;;;;;;;2.00;1.90;;;;;;;-145.94;43.01;76172.31;5111815;28;20250;-66
2023/07/06 10:53:47;;;;;;;1.80;1.80;;;;;;;-145.94;43.11;76172.31;5096457;28;20613;-66
2023/07/06 10:56:17;;;;;;;2.10;2.00;;;;;;;-145.94;44.13;76172.31;5111798;28;20177;-67
2023/07/06 10:58:55;;;;;;;5.10;1.97;;;;;;;-145.94;44.09;76156.00;5107746;28;20589;-68
2023/07/06 11:01:29;;;;;;;2.20;2.20;;;;;;;-145.94;44.45;76141.75;5111250;28;20200;-67
2023/07/06 11:03:56;;;;;;;2.13;2.10;;;;;;;-145.94;42.97;76139.69;5106312;28;20189;-68
2023/07/06 11:06:51;;;;;;;2.00;2.00;;;;;;;-145.94;43.42;76176.41;5104349;28;20823;-66
2023/07/06 11:09:17;;;;;;;2.23;2.10;;;;;;;-145.94;44.13;76166.22;5111124;28;20246;-66
2023/07/06 11:11:54;;;;;;;2.77;1.77;;;;;;;-145.94;43.10;76164.16;5105481;28;20692;-67
2023/07/06 11:14:35;;;;;;;2.50;2.33;;;;;;;-145.94;42.01;76162.13;5109631;28;20583;-66
2023/07/06 11:17:26;;;;;;;2.10;2.00;;;;;;;-145.94;41.34;76135.63;5094300;28;20659;-67
2023/07/06 11:20:15;;;;;;;2.73;2.57;;;;;;;-145.94;41.94;76125.44;5114717;28;20200;-66
2023/07/06 11:22:44;;;;;;;3.27;2.67;;;;;;;-145.94;43.06;76109.13;5114780;28;20185;-67
2023/07/06 11:25:13;;;;;;;2.83;2.47;;;;;;;-145.94;42.09;76113.19;5110701;28;20193;-67
2023/07/06 11:27:44;;;;;;;2.40;2.27;;;;;;;-145.94;42.39;76121.34;5115061;28;20663;-66
2023/07/06 11:30:22;;;;;;;5.47;2.70;;;;;;;-145.94;41.76;76131.56;5116405;28;20610;-67
2023/07/06 11:33:10;;;;;;;4.17;2.37;;;;;;;-145.94;41.46;76158.06;5114809;28;20232;-67
2023/07/06 11:35:55;;;;;;;4.80;1.83;;;;;;;-145.94;41.50;76153.97;5116525;28;20646;-66